Time,TemperatureF,DewpointF,PressureIn,WindDirection,WindDirectionDegrees,WindSpeedMPH,WindSpeedGustMPH,Humidity,HourlyPrecipIn,Conditions,Clouds,dailyrainin,SolarRadiationWatts/m^2,SoftwareType,DateUTC
2013-08-18 00:04:00,60.0,54.5,30.09,SSW,205,0.0,4.0,82,0.00,,SCT,0.00,0.00,VWS V14.01,2013-08-18 05:04:00,
2013-08-18 00:09:00,60.1,54.3,30.09,SSW,213,2.0,5.0,81,0.00,,SCT,0.00,0.00,VWS V14.01,2013-08-18 05:09:00,
2013-08-18 00:14:00,60.2,54.4,30.09,SW,230,3.0,6.0,81,0.00,,SCT,0.00,0.00,VWS V14.01,2013-08-18 05:14:00,
2013-08-18 00:19:00,60.4,54.9,30.09,SW,214,0.0,5.0,82,0.00,,SCT,0.00,0.00,VWS V14.01,2013-08-18 05:19:00,
2013-08-18 00:24:00,60.4,54.5,30.09,SSW,213,2.0,3.0,81,0.00,,SCT,0.00,0.00,VWS V14.01,2013-08-18 05:24:00,
2013-08-18 00:29:00,60.5,54.3,30.09,SW,227,3.0,4.0,80,0.00,,SCT,0.00,0.00,VWS V14.01,2013-08-18 05:29:00,
2013-08-18 00:34:00,60.5,54.3,30.09,WSW,240,5.0,5.0,80,0.00,,SCT,0.00,0.00,VWS V14.01,2013-08-18 05:34:00,
2013-08-18 00:39:00,60.4,54.2,30.09,SW,215,2.0,4.0,80,0.00,,SCT,0.00,0.00,VWS V14.01,2013-08-18 05:39:00,
2013-08-18 00:44:00,60.4,54.2,30.09,SW,223,0.0,4.0,80,0.00,,SCT,0.00,0.00,VWS V14.01,2013-08-18 05:44:00,
2013-08-18 00:49:00,60.3,54.1,30.09,SW,222,1.0,3.0,80,0.00,,SCT,0.00,0.00,VWS V14.01,2013-08-18 05:49:00,
2013-08-18 00:55:00,60.2,54.0,30.09,SW,215,0.0,2.0,80,0.00,,SCT,0.00,0.00,VWS V14.01,2013-08-18 05:55:00,
2013-08-18 01:00:00,60.0,53.8,30.09,South,188,1.0,2.0,80,0.00,,SCT,0.00,0.00,VWS V14.01,2013-08-18 06:00:00,
2013-08-18 01:05:00,59.8,53.6,30.09,SSW,213,0.0,3.0,80,0.00,,SCT,0.00,0.00,VWS V14.01,2013-08-18 06:05:00,
2013-08-18 01:10:00,59.7,53.9,30.09,SSW,213,0.0,0.0,81,0.00,,SCT,0.00,0.00,VWS V14.01,2013-08-18 06:10:00,
2013-08-18 01:15:00,59.5,53.7,30.09,SSW,213,0.0,0.0,81,0.00,,SCT,0.00,0.00,VWS V14.01,2013-08-18 06:15:00,
2013-08-18 01:20:00,59.1,53.3,30.09,SSW,213,0.0,0.0,81,0.00,,SCT,0.00,0.00,VWS V14.01,2013-08-18 06:20:00,
2013-08-18 01:25:00,59.0,53.5,30.09,SW,224,0.0,2.0,82,0.00,,SCT,0.00,0.00,VWS V14.01,2013-08-18 06:25:00,
2013-08-18 01:30:00,59.0,53.5,30.09,SW,224,0.0,0.0,82,0.00,,SCT,0.00,0.00,VWS V14.01,2013-08-18 06:30:00,
2013-08-18 01:35:00,58.8,53.7,30.09,SW,224,0.0,0.0,83,0.00,,SCT,0.00,0.00,VWS V14.01,2013-08-18 06:35:00,
2013-08-18 01:40:00,58.6,53.5,30.09,SW,224,0.0,0.0,83,0.00,,SCT,0.00,0.00,VWS V14.01,2013-08-18 06:40:00,
2013-08-18 01:45:00,58.4,53.6,30.09,SW,224,0.0,0.0,84,0.00,,SCT,0.00,0.00,VWS V14.01,2013-08-18 06:45:00,
2013-08-18 01:50:00,58.2,53.4,30.09,SW,224,0.0,0.0,84,0.00,,SCT,0.00,0.00,VWS V14.01,2013-08-18 06:50:00,
2013-08-18 01:55:00,58.1,53.3,30.09,SW,224,0.0,0.0,84,0.00,,SCT,0.00,0.00,VWS V14.01,2013-08-18 06:55:00,
2013-08-18 02:00:00,58.0,53.5,30.09,SW,224,0.0,0.0,85,0.00,,SCT,0.00,0.00,VWS V14.01,2013-08-18 07:00:00,
2013-08-18 02:05:00,57.8,53.3,30.09,SW,224,0.0,0.0,85,0.00,,SCT,0.00,0.00,VWS V14.01,2013-08-18 07:05:00,
2013-08-18 02:10:00,57.7,53.2,30.09,SW,224,0.0,0.0,85,0.00,,SCT,0.00,0.00,VWS V14.01,2013-08-18 07:10:00,
2013-08-18 02:15:00,57.5,53.0,30.10,SW,224,0.0,0.0,85,0.00,,SCT,0.00,0.00,VWS V14.01,2013-08-18 07:15:00,
2013-08-18 02:20:00,57.3,52.8,30.10,SW,224,0.0,0.0,85,0.00,,SCT,0.00,0.00,VWS V14.01,2013-08-18 07:20:00,
2013-08-18 02:25:00,57.1,52.6,30.10,SW,224,0.0,0.0,85,0.00,,SCT,0.00,0.00,VWS V14.01,2013-08-18 07:25:00,
2013-08-18 02:30:00,57.0,52.5,30.10,SW,224,0.0,0.0,85,0.00,,SCT,0.00,0.00,VWS V14.01,2013-08-18 07:30:00,
2013-08-18 02:35:00,56.8,52.3,30.10,SW,224,0.0,0.0,85,0.00,,SCT,0.00,0.00,VWS V14.01,2013-08-18 07:35:00,
2013-08-18 02:40:00,56.6,52.2,30.09,SW,224,0.0,0.0,85,0.00,,SCT,0.00,0.00,VWS V14.01,2013-08-18 07:40:00,
2013-08-18 02:45:00,56.4,52.0,30.09,SW,224,0.0,0.0,85,0.00,,SCT,0.00,0.00,VWS V14.01,2013-08-18 07:45:00,
2013-08-18 02:50:00,56.3,51.9,30.09,SW,224,0.0,0.0,85,0.00,,SCT,0.00,0.00,VWS V14.01,2013-08-18 07:50:00,
2013-08-18 02:55:00,55.9,51.5,30.10,SW,224,0.0,0.0,85,0.00,,SCT,0.00,0.00,VWS V14.01,2013-08-18 07:55:00,
2013-08-18 03:00:00,55.6,51.2,30.10,SW,224,0.0,0.0,85,0.00,,SCT,0.00,0.00,VWS V14.01,2013-08-18 08:00:00,
2013-08-18 03:05:00,55.4,51.3,30.10,SW,224,0.0,0.0,86,0.00,,SCT,0.00,0.00,VWS V14.01,2013-08-18 08:05:00,
2013-08-18 03:10:00,55.2,51.4,30.10,SW,224,0.0,0.0,87,0.00,,SCT,0.00,0.00,VWS V14.01,2013-08-18 08:10:00,
2013-08-18 03:15:00,55.0,51.2,30.10,SW,224,0.0,0.0,87,0.00,,SCT,0.00,0.00,VWS V14.01,2013-08-18 08:15:00,
2013-08-18 03:20:00,54.9,51.4,30.10,SW,224,0.0,0.0,88,0.00,,SCT,0.00,0.00,VWS V14.01,2013-08-18 08:20:00,
2013-08-18 03:25:00,54.8,51.3,30.10,SW,224,0.0,0.0,88,0.00,,SCT,0.00,0.00,VWS V14.01,2013-08-18 08:25:00,
2013-08-18 03:30:00,54.7,51.5,30.10,SW,224,0.0,0.0,89,0.00,,SCT,0.00,0.00,VWS V14.01,2013-08-18 08:30:00,
2013-08-18 03:35:00,54.6,51.4,30.10,SW,223,0.0,0.0,89,0.00,,SCT,0.00,0.00,VWS V14.01,2013-08-18 08:35:00,
2013-08-18 03:40:00,54.5,51.3,30.10,SW,223,0.0,0.0,89,0.00,,SCT,0.00,0.00,VWS V14.01,2013-08-18 08:40:00,
2013-08-18 03:45:00,54.4,51.2,30.10,SW,221,0.0,3.0,89,0.00,,SCT,0.00,0.00,VWS V14.01,2013-08-18 08:45:00,
2013-08-18 03:50:00,54.4,51.2,30.10,SW,221,0.0,0.0,89,0.00,,SCT,0.00,0.00,VWS V14.01,2013-08-18 08:50:00,
2013-08-18 03:55:00,54.5,51.6,30.10,SW,221,0.0,0.0,90,0.00,,SCT,0.00,0.00,VWS V14.01,2013-08-18 08:55:00,
2013-08-18 04:00:00,54.5,51.6,30.11,SW,221,0.0,0.0,90,0.00,,SCT,0.00,0.00,VWS V14.01,2013-08-18 09:00:00,
2013-08-18 04:05:00,54.3,51.1,30.10,SW,221,0.0,0.0,89,0.00,,SCT,0.00,0.00,VWS V14.01,2013-08-18 09:05:00,
2013-08-18 04:11:00,54.1,50.9,30.10,SW,221,0.0,0.0,89,0.00,,SCT,0.00,0.00,VWS V14.01,2013-08-18 09:11:00,
2013-08-18 04:16:00,54.0,50.8,30.10,SW,221,0.0,0.0,89,0.00,,SCT,0.00,0.00,VWS V14.01,2013-08-18 09:16:00,
2013-08-18 04:21:00,53.9,50.7,30.10,SW,221,0.0,0.0,89,0.00,,SCT,0.00,0.00,VWS V14.01,2013-08-18 09:21:00,
2013-08-18 04:26:00,53.7,50.5,30.10,SW,221,0.0,0.0,89,0.00,,SCT,0.00,0.00,VWS V14.01,2013-08-18 09:26:00,
2013-08-18 04:31:00,53.6,50.4,30.10,SW,221,0.0,0.0,89,0.00,,SCT,0.00,0.00,VWS V14.01,2013-08-18 09:31:00,
2013-08-18 04:36:00,53.4,50.2,30.10,SW,221,0.0,0.0,89,0.00,,SCT,0.00,0.00,VWS V14.01,2013-08-18 09:36:00,
2013-08-18 04:41:00,53.3,50.5,30.10,SW,221,0.0,1.0,90,0.00,,SCT,0.00,0.00,VWS V14.01,2013-08-18 09:41:00,
2013-08-18 04:46:00,53.2,50.3,30.10,SW,219,0.0,2.0,90,0.00,,SCT,0.00,0.00,VWS V14.01,2013-08-18 09:46:00,
2013-08-18 04:51:00,53.2,50.3,30.11,SW,219,0.0,0.0,90,0.00,,SCT,0.00,0.00,VWS V14.01,2013-08-18 09:51:00,
2013-08-18 04:56:00,53.2,50.7,30.11,SW,219,0.0,0.0,91,0.00,,SCT,0.00,0.00,VWS V14.01,2013-08-18 09:56:00,
2013-08-18 05:01:00,53.2,50.7,30.11,SW,219,0.0,0.0,91,0.00,,SCT,0.00,0.00,VWS V14.01,2013-08-18 10:01:00,
2013-08-18 05:06:00,53.2,50.7,30.11,SW,219,0.0,0.0,91,0.00,,SCT,0.00,0.00,VWS V14.01,2013-08-18 10:06:00,
2013-08-18 05:11:00,53.2,50.7,30.11,SW,219,0.0,0.0,91,0.00,,SCT,0.00,0.00,VWS V14.01,2013-08-18 10:11:00,
2013-08-18 05:16:00,53.1,50.5,30.11,SW,217,0.0,3.0,91,0.00,,SCT,0.00,0.00,VWS V14.01,2013-08-18 10:16:00,
2013-08-18 05:21:00,53.1,50.5,30.11,SW,217,0.0,0.0,91,0.00,,SCT,0.00,0.00,VWS V14.01,2013-08-18 10:21:00,
2013-08-18 05:26:00,53.0,50.5,30.11,SW,217,0.0,0.0,91,0.00,,SCT,0.00,0.00,VWS V14.01,2013-08-18 10:26:00,
2013-08-18 05:31:00,53.0,50.5,30.11,SW,217,0.0,0.0,91,0.00,,SCT,0.00,0.00,VWS V14.01,2013-08-18 10:31:00,
2013-08-18 05:36:00,52.9,50.3,30.11,SW,217,0.0,0.0,91,0.00,,SCT,0.00,0.00,VWS V14.01,2013-08-18 10:36:00,
2013-08-18 05:41:00,52.8,50.2,30.12,SW,217,0.0,0.0,91,0.00,,SCT,0.00,0.00,VWS V14.01,2013-08-18 10:41:00,
2013-08-18 05:46:00,52.8,50.2,30.12,SW,217,0.0,0.0,91,0.00,,SCT,0.00,0.00,VWS V14.01,2013-08-18 10:46:00,
2013-08-18 05:51:00,52.8,50.2,30.12,SW,217,0.0,0.0,91,0.00,,SCT,0.00,0.00,VWS V14.01,2013-08-18 10:51:00,
2013-08-18 05:56:00,52.7,50.2,30.12,SW,217,0.0,0.0,91,0.00,,SCT,0.00,0.00,VWS V14.01,2013-08-18 10:56:00,
2013-08-18 06:01:00,52.7,50.2,30.12,SW,217,0.0,0.0,91,0.00,,SCT,0.00,0.00,VWS V14.01,2013-08-18 11:01:00,
2013-08-18 06:06:00,52.7,50.2,30.12,SW,217,0.0,0.0,91,0.00,,SCT,0.00,0.00,VWS V14.01,2013-08-18 11:06:00,
2013-08-18 06:11:00,52.6,50.0,30.12,SW,217,0.0,0.0,91,0.00,,SCT,0.00,0.00,VWS V14.01,2013-08-18 11:11:00,
2013-08-18 06:16:00,52.4,49.8,30.13,SW,217,0.0,0.0,91,0.00,,SCT,0.00,5.00,VWS V14.01,2013-08-18 11:16:00,
2013-08-18 06:21:00,52.4,49.8,30.12,SW,217,0.0,0.0,91,0.00,,SCT,0.00,9.00,VWS V14.01,2013-08-18 11:21:00,
2013-08-18 06:26:00,52.3,49.8,30.12,SW,217,0.0,0.0,91,0.00,,SCT,0.00,14.00,VWS V14.01,2013-08-18 11:26:00,
2013-08-18 06:31:00,52.3,49.8,30.12,SW,217,0.0,0.0,91,0.00,,SCT,0.00,18.00,VWS V14.01,2013-08-18 11:31:00,
2013-08-18 06:36:00,52.3,49.8,30.13,SW,217,0.0,0.0,91,0.00,,SCT,0.00,19.00,VWS V14.01,2013-08-18 11:36:00,
2013-08-18 06:41:00,52.3,49.8,30.13,SW,217,0.0,0.0,91,0.00,,SCT,0.00,23.00,VWS V14.01,2013-08-18 11:41:00,
2013-08-18 06:46:00,52.4,49.8,30.13,SW,217,0.0,0.0,91,0.00,,SCT,0.00,26.00,VWS V14.01,2013-08-18 11:46:00,
2013-08-18 06:51:00,52.5,50.2,30.13,SW,217,0.0,0.0,92,0.00,,SCT,0.00,32.00,VWS V14.01,2013-08-18 11:51:00,
2013-08-18 06:56:00,52.6,50.3,30.13,SW,217,0.0,0.0,92,0.00,,SCT,0.00,37.00,VWS V14.01,2013-08-18 11:56:00,
2013-08-18 07:01:00,52.7,50.5,30.13,SW,217,0.0,0.0,92,0.00,,SCT,0.00,44.00,VWS V14.01,2013-08-18 12:01:00,
2013-08-18 07:06:00,52.9,50.6,30.13,SW,217,0.0,0.0,92,0.00,,SCT,0.00,49.00,VWS V14.01,2013-08-18 12:06:00,
2013-08-18 07:11:00,53.1,50.8,30.13,SW,217,0.0,0.0,92,0.00,,SCT,0.00,51.00,VWS V14.01,2013-08-18 12:11:00,
2013-08-18 07:16:00,53.3,51.0,30.13,SW,217,0.0,0.0,92,0.00,,SCT,0.00,54.00,VWS V14.01,2013-08-18 12:16:00,
2013-08-18 07:21:00,53.5,51.2,30.13,SW,217,0.0,0.0,92,0.00,,SCT,0.00,56.00,VWS V14.01,2013-08-18 12:21:00,
2013-08-18 07:26:00,53.8,51.8,30.14,SW,217,0.0,0.0,93,0.00,,SCT,0.00,60.00,VWS V14.01,2013-08-18 12:26:00,
2013-08-18 07:31:00,54.1,52.1,30.13,SW,216,0.0,2.0,93,0.00,,SCT,0.00,62.00,VWS V14.01,2013-08-18 12:31:00,
2013-08-18 07:36:00,54.4,52.4,30.13,SW,215,0.0,0.0,93,0.00,,SCT,0.00,60.00,VWS V14.01,2013-08-18 12:36:00,
2013-08-18 07:41:00,54.8,52.8,30.14,SW,215,0.0,2.0,93,0.00,,SCT,0.00,58.00,VWS V14.01,2013-08-18 12:41:00,
2013-08-18 07:46:00,55.0,53.0,30.14,SW,228,0.0,0.0,93,0.00,,SCT,0.00,54.00,VWS V14.01,2013-08-18 12:46:00,
2013-08-18 07:51:00,55.2,53.2,30.14,SW,228,0.0,0.0,93,0.00,,SCT,0.00,47.00,VWS V14.01,2013-08-18 12:51:00,
2013-08-18 07:57:00,55.5,53.5,30.14,SW,228,0.0,0.0,93,0.00,,SCT,0.00,42.00,VWS V14.01,2013-08-18 12:57:00,
2013-08-18 08:02:00,55.8,53.8,30.14,SW,228,0.0,0.0,93,0.00,,SCT,0.00,42.00,VWS V14.01,2013-08-18 13:02:00,
2013-08-18 08:07:00,56.2,54.2,30.14,SW,226,0.0,0.0,93,0.00,,SCT,0.00,46.00,VWS V14.01,2013-08-18 13:07:00,
2013-08-18 08:12:00,56.3,54.3,30.13,SW,225,0.0,0.0,93,0.00,,SCT,0.00,53.00,VWS V14.01,2013-08-18 13:12:00,
2013-08-18 08:17:00,56.6,54.6,30.14,SW,226,0.0,0.0,93,0.00,,SCT,0.00,54.00,VWS V14.01,2013-08-18 13:17:00,
2013-08-18 08:22:00,56.9,54.9,30.14,SW,226,0.0,0.0,93,0.00,,SCT,0.00,54.00,VWS V14.01,2013-08-18 13:22:00,
2013-08-18 08:27:00,57.3,55.3,30.14,SW,226,0.0,0.0,93,0.00,,SCT,0.00,58.00,VWS V14.01,2013-08-18 13:27:00,
2013-08-18 08:32:00,57.8,55.8,30.13,SW,226,0.0,0.0,93,0.00,,SCT,0.00,62.00,VWS V14.01,2013-08-18 13:32:00,
2013-08-18 08:37:00,58.3,56.0,30.13,SSW,212,0.0,0.0,92,0.00,,SCT,0.00,65.00,VWS V14.01,2013-08-18 13:37:00,
2013-08-18 08:42:00,58.7,56.1,30.13,SW,230,0.0,3.0,91,0.00,,SCT,0.00,69.00,VWS V14.01,2013-08-18 13:42:00,
2013-08-18 08:47:00,59.0,56.4,30.13,SW,230,0.0,0.0,91,0.00,,SCT,0.00,93.00,VWS V14.01,2013-08-18 13:47:00,
2013-08-18 08:52:00,59.8,56.9,30.13,WSW,248,4.0,4.0,90,0.00,,SCT,0.00,327.00,VWS V14.01,2013-08-18 13:52:00,
2013-08-18 08:57:00,60.6,57.3,30.13,WSW,242,4.0,4.0,89,0.00,,SCT,0.00,355.00,VWS V14.01,2013-08-18 13:57:00,
2013-08-18 09:02:00,61.4,57.5,30.12,WSW,238,3.0,3.0,87,0.00,,SCT,0.00,387.00,VWS V14.01,2013-08-18 14:02:00,
2013-08-18 09:07:00,62.2,57.6,30.12,SW,234,6.0,6.0,85,0.00,,SCT,0.00,408.00,VWS V14.01,2013-08-18 14:07:00,
2013-08-18 09:12:00,63.0,58.1,30.12,WSW,240,3.0,6.0,84,0.00,,SCT,0.00,424.00,VWS V14.01,2013-08-18 14:12:00,
2013-08-18 09:17:00,63.7,58.1,30.12,WSW,241,5.0,6.0,82,0.00,,SCT,0.00,450.00,VWS V14.01,2013-08-18 14:17:00,
2013-08-18 09:22:00,64.5,58.5,30.12,SW,217,3.0,5.0,81,0.00,,SCT,0.00,464.00,VWS V14.01,2013-08-18 14:22:00,
2013-08-18 09:27:00,65.3,59.3,30.12,WSW,257,1.0,4.0,81,0.00,,SCT,0.00,388.00,VWS V14.01,2013-08-18 14:27:00,
2013-08-18 09:32:00,65.8,58.8,30.12,WSW,241,8.0,8.0,78,0.00,,SCT,0.00,415.00,VWS V14.01,2013-08-18 14:32:00,
2013-08-18 09:37:00,66.4,59.0,30.12,WSW,252,4.0,4.0,77,0.00,,SCT,0.00,461.00,VWS V14.01,2013-08-18 14:37:00,
2013-08-18 09:42:00,67.0,59.6,30.12,SW,236,4.0,5.0,77,0.00,,SCT,0.00,503.00,VWS V14.01,2013-08-18 14:42:00,
2013-08-18 09:47:00,67.4,59.6,30.12,WSW,238,9.0,9.0,76,0.00,,SCT,0.00,519.00,VWS V14.01,2013-08-18 14:47:00,
2013-08-18 09:52:00,67.9,59.3,30.12,WSW,246,7.0,9.0,74,0.00,,SCT,0.00,485.00,VWS V14.01,2013-08-18 14:52:00,
2013-08-18 09:57:00,68.4,59.8,30.12,West,277,6.0,10.0,74,0.00,,SCT,0.00,510.00,VWS V14.01,2013-08-18 14:57:00,
2013-08-18 10:02:00,68.9,60.3,30.12,WSW,244,4.0,6.0,74,0.00,,SCT,0.00,494.00,VWS V14.01,2013-08-18 15:02:00,
2013-08-18 10:07:00,69.2,59.8,30.11,WSW,239,7.0,7.0,72,0.00,,SCT,0.00,540.00,VWS V14.01,2013-08-18 15:07:00,
2013-08-18 10:12:00,69.7,60.7,30.11,West,273,11.0,11.0,73,0.00,,SCT,0.00,571.00,VWS V14.01,2013-08-18 15:12:00,
2013-08-18 10:17:00,70.0,60.6,30.11,WSW,238,9.0,10.0,72,0.00,,SCT,0.00,589.00,VWS V14.01,2013-08-18 15:17:00,
2013-08-18 10:22:00,70.4,60.6,30.11,WSW,237,6.0,7.0,71,0.00,,SCT,0.00,591.00,VWS V14.01,2013-08-18 15:22:00,
2013-08-18 10:27:00,70.8,60.9,30.11,West,265,3.0,5.0,71,0.00,,SCT,0.00,603.00,VWS V14.01,2013-08-18 15:27:00,
2013-08-18 10:32:00,71.2,60.1,30.11,SW,234,9.0,10.0,68,0.00,,SCT,0.00,622.00,VWS V14.01,2013-08-18 15:32:00,
2013-08-18 10:37:00,71.5,60.0,30.11,SW,234,3.0,8.0,67,0.00,,SCT,0.00,638.00,VWS V14.01,2013-08-18 15:37:00,
2013-08-18 10:42:00,71.9,61.2,30.10,WSW,244,6.0,6.0,69,0.00,,SCT,0.00,657.00,VWS V14.01,2013-08-18 15:42:00,
2013-08-18 10:47:00,72.2,59.8,30.11,WSW,254,10.0,12.0,65,0.00,,SCT,0.00,647.00,VWS V14.01,2013-08-18 15:47:00,
2013-08-18 10:52:00,72.2,59.8,30.10,WSW,253,8.0,11.0,65,0.00,,SCT,0.00,679.00,VWS V14.01,2013-08-18 15:52:00,
2013-08-18 10:57:00,72.3,59.5,30.10,WSW,244,6.0,14.0,64,0.00,,SCT,0.00,663.00,VWS V14.01,2013-08-18 15:57:00,
2013-08-18 11:02:00,72.4,60.8,30.10,WSW,244,8.0,9.0,67,0.00,,SCT,0.00,679.00,VWS V14.01,2013-08-18 16:02:00,
2013-08-18 11:07:00,72.6,58.8,30.10,WSW,238,9.0,16.0,62,0.00,,SCT,0.00,675.00,VWS V14.01,2013-08-18 16:07:00,
2013-08-18 11:13:00,72.8,59.5,30.10,WSW,238,10.0,12.0,63,0.00,,SCT,0.00,712.00,VWS V14.01,2013-08-18 16:13:00,
2013-08-18 11:18:00,73.0,58.3,30.10,WSW,250,13.0,21.0,60,0.00,,SCT,0.00,740.00,VWS V14.01,2013-08-18 16:18:00,
2013-08-18 11:23:00,73.2,59.9,30.10,WSW,238,13.0,20.0,63,0.00,,SCT,0.00,749.00,VWS V14.01,2013-08-18 16:23:00,
2013-08-18 11:28:00,73.3,59.0,30.09,West,260,9.0,14.0,61,0.00,,SCT,0.00,751.00,VWS V14.01,2013-08-18 16:28:00,
2013-08-18 11:33:00,73.5,59.2,30.09,WSW,257,8.0,8.0,61,0.00,,SCT,0.00,759.00,VWS V14.01,2013-08-18 16:33:00,
2013-08-18 11:38:00,73.7,59.9,30.09,WSW,257,10.0,12.0,62,0.00,,SCT,0.00,763.00,VWS V14.01,2013-08-18 16:38:00,
2013-08-18 11:43:00,73.9,59.2,30.09,WSW,250,14.0,17.0,60,0.00,,SCT,0.00,772.00,VWS V14.01,2013-08-18 16:43:00,
2013-08-18 11:48:00,73.8,60.0,30.09,WSW,254,14.0,17.0,62,0.00,,SCT,0.00,729.00,VWS V14.01,2013-08-18 16:48:00,
2013-08-18 11:53:00,73.8,59.5,30.09,SW,225,12.0,17.0,61,0.00,,SCT,0.00,824.00,VWS V14.01,2013-08-18 16:53:00,
2013-08-18 11:58:00,73.9,60.1,30.09,West,271,11.0,18.0,62,0.00,,SCT,0.00,257.00,VWS V14.01,2013-08-18 16:58:00,
2013-08-18 12:03:00,73.9,58.7,30.09,WSW,250,12.0,17.0,59,0.00,,SCT,0.00,870.00,VWS V14.01,2013-08-18 17:03:00,
2013-08-18 12:08:00,74.2,58.5,30.09,WSW,252,8.0,17.0,58,0.00,,SCT,0.00,833.00,VWS V14.01,2013-08-18 17:08:00,
2013-08-18 12:13:00,74.4,57.2,30.09,WSW,257,12.0,16.0,55,0.00,,SCT,0.00,763.00,VWS V14.01,2013-08-18 17:13:00,
2013-08-18 12:18:00,74.6,59.3,30.09,WSW,242,12.0,16.0,59,0.00,,SCT,0.00,775.00,VWS V14.01,2013-08-18 17:18:00,
2013-08-18 12:23:00,74.5,58.3,30.08,SW,227,16.0,18.0,57,0.00,,SCT,0.00,796.00,VWS V14.01,2013-08-18 17:23:00,
2013-08-18 12:28:00,74.5,57.8,30.08,SSW,198,10.0,14.0,56,0.00,,SCT,0.00,817.00,VWS V14.01,2013-08-18 17:28:00,
2013-08-18 12:33:00,74.7,58.5,30.08,WSW,242,8.0,12.0,57,0.00,,SCT,0.00,800.00,VWS V14.01,2013-08-18 17:33:00,
2013-08-18 12:38:00,74.8,58.6,30.07,WSW,251,6.0,18.0,57,0.00,,SCT,0.00,708.00,VWS V14.01,2013-08-18 17:38:00,
2013-08-18 12:43:00,74.8,58.6,30.07,SW,229,13.0,15.0,57,0.00,,SCT,0.00,766.00,VWS V14.01,2013-08-18 17:43:00,
2013-08-18 12:48:00,74.9,59.1,30.07,WSW,254,10.0,15.0,58,0.00,,SCT,0.00,278.00,VWS V14.01,2013-08-18 17:48:00,
2013-08-18 12:53:00,74.8,59.0,30.07,West,263,10.0,12.0,58,0.00,,SCT,0.00,803.00,VWS V14.01,2013-08-18 17:53:00,
2013-08-18 12:58:00,74.8,58.1,30.07,WSW,251,14.0,16.0,56,0.00,,SCT,0.00,786.00,VWS V14.01,2013-08-18 17:58:00,
2013-08-18 13:03:00,74.9,58.2,30.06,WSW,247,17.0,17.0,56,0.00,,SCT,0.00,916.00,VWS V14.01,2013-08-18 18:03:00,
2013-08-18 13:08:00,75.1,58.3,30.06,WSW,240,8.0,23.0,56,0.00,,SCT,0.00,867.00,VWS V14.01,2013-08-18 18:08:00,
2013-08-18 13:13:00,75.4,58.6,30.06,WSW,240,9.0,15.0,56,0.00,,SCT,0.00,838.00,VWS V14.01,2013-08-18 18:13:00,
2013-08-18 13:18:00,75.5,59.2,30.06,West,259,6.0,17.0,57,0.00,,SCT,0.00,840.00,VWS V14.01,2013-08-18 18:18:00,
2013-08-18 13:23:00,75.5,59.7,30.06,WSW,254,13.0,18.0,58,0.00,,SCT,0.00,902.00,VWS V14.01,2013-08-18 18:23:00,
2013-08-18 13:28:00,75.5,59.7,30.05,West,265,15.0,15.0,58,0.00,,SCT,0.00,315.00,VWS V14.01,2013-08-18 18:28:00,
2013-08-18 13:33:00,75.5,58.2,30.05,West,268,9.0,15.0,55,0.00,,SCT,0.00,780.00,VWS V14.01,2013-08-18 18:33:00,
2013-08-18 13:38:00,75.6,59.8,30.06,WSW,240,17.0,20.0,58,0.00,,SCT,0.00,826.00,VWS V14.01,2013-08-18 18:38:00,
2013-08-18 13:43:00,75.7,58.9,30.06,West,275,5.0,17.0,56,0.00,,SCT,0.00,798.00,VWS V14.01,2013-08-18 18:43:00,
2013-08-18 13:48:00,75.7,58.9,30.05,WSW,252,10.0,16.0,56,0.00,,SCT,0.00,816.00,VWS V14.01,2013-08-18 18:48:00,
2013-08-18 13:53:00,75.8,59.0,30.05,West,260,14.0,18.0,56,0.00,,SCT,0.00,879.00,VWS V14.01,2013-08-18 18:53:00,
2013-08-18 13:58:00,76.0,60.2,30.05,SW,227,16.0,21.0,58,0.00,,SCT,0.00,851.00,VWS V14.01,2013-08-18 18:58:00,
2013-08-18 14:03:00,76.0,59.2,30.05,WSW,250,8.0,17.0,56,0.00,,SCT,0.00,865.00,VWS V14.01,2013-08-18 19:03:00,
2013-08-18 14:08:00,76.1,58.8,30.05,SW,236,7.0,14.0,55,0.00,,SCT,0.00,846.00,VWS V14.01,2013-08-18 19:08:00,
2013-08-18 14:13:00,76.2,58.9,30.06,WSW,246,13.0,18.0,55,0.00,,SCT,0.00,833.00,VWS V14.01,2013-08-18 19:13:00,
2013-08-18 14:19:00,76.4,59.1,30.05,WSW,242,10.0,14.0,55,0.00,,SCT,0.00,840.00,VWS V14.01,2013-08-18 19:19:00,
2013-08-18 14:24:00,76.6,59.8,30.05,WSW,253,12.0,15.0,56,0.00,,SCT,0.00,837.00,VWS V14.01,2013-08-18 19:24:00,
2013-08-18 14:29:00,76.4,59.1,30.05,SW,228,14.0,19.0,55,0.00,,SCT,0.00,819.00,VWS V14.01,2013-08-18 19:29:00,
2013-08-18 14:34:00,76.5,59.2,30.05,WSW,246,7.0,17.0,55,0.00,,SCT,0.00,796.00,VWS V14.01,2013-08-18 19:34:00,
2013-08-18 14:39:00,76.5,60.6,30.05,WSW,254,10.0,17.0,58,0.00,,SCT,0.00,810.00,VWS V14.01,2013-08-18 19:39:00,
2013-08-18 14:44:00,76.6,59.8,30.04,WSW,238,15.0,16.0,56,0.00,,SCT,0.00,800.00,VWS V14.01,2013-08-18 19:44:00,
2013-08-18 14:49:00,76.7,59.3,30.04,WSW,254,11.0,16.0,55,0.00,,SCT,0.00,798.00,VWS V14.01,2013-08-18 19:49:00,
2013-08-18 14:54:00,76.9,59.0,30.04,SW,233,12.0,15.0,54,0.00,,SCT,0.00,786.00,VWS V14.01,2013-08-18 19:54:00,
2013-08-18 14:59:00,77.0,59.1,30.04,West,268,6.0,17.0,54,0.00,,SCT,0.00,758.00,VWS V14.01,2013-08-18 19:59:00,
2013-08-18 15:04:00,77.1,58.7,30.04,WSW,244,6.0,13.0,53,0.00,,SCT,0.00,721.00,VWS V14.01,2013-08-18 20:04:00,
2013-08-18 15:09:00,77.4,59.0,30.03,WSW,240,12.0,16.0,53,0.00,,SCT,0.00,789.00,VWS V14.01,2013-08-18 20:09:00,
2013-08-18 15:14:00,77.5,59.6,30.03,WSW,246,11.0,15.0,54,0.00,,SCT,0.00,770.00,VWS V14.01,2013-08-18 20:14:00,
2013-08-18 15:19:00,77.5,58.5,30.03,WSW,253,15.0,17.0,52,0.00,,SCT,0.00,758.00,VWS V14.01,2013-08-18 20:19:00,
2013-08-18 15:24:00,77.3,58.8,30.03,West,262,9.0,17.0,53,0.00,,SCT,0.00,747.00,VWS V14.01,2013-08-18 20:24:00,
2013-08-18 15:29:00,77.2,57.7,30.03,WSW,248,14.0,18.0,51,0.00,,SCT,0.00,735.00,VWS V14.01,2013-08-18 20:29:00,
2013-08-18 15:34:00,77.3,58.8,30.03,SW,233,10.0,13.0,53,0.00,,SCT,0.00,731.00,VWS V14.01,2013-08-18 20:34:00,
2013-08-18 15:39:00,77.5,58.5,30.03,SW,236,14.0,15.0,52,0.00,,SCT,0.00,722.00,VWS V14.01,2013-08-18 20:39:00,
2013-08-18 15:44:00,77.6,57.0,30.03,West,259,11.0,17.0,49,0.00,,SCT,0.00,694.00,VWS V14.01,2013-08-18 20:44:00,
2013-08-18 15:49:00,77.6,58.6,30.03,WSW,250,10.0,19.0,52,0.00,,SCT,0.00,694.00,VWS V14.01,2013-08-18 20:49:00,
2013-08-18 15:54:00,77.7,57.6,30.03,SSW,211,8.0,11.0,50,0.00,,SCT,0.00,694.00,VWS V14.01,2013-08-18 20:54:00,
2013-08-18 15:59:00,77.9,58.9,30.02,WSW,254,15.0,17.0,52,0.00,,SCT,0.00,677.00,VWS V14.01,2013-08-18 20:59:00,
2013-08-18 16:04:00,77.8,58.8,30.02,WSW,256,15.0,15.0,52,0.00,,SCT,0.00,656.00,VWS V14.01,2013-08-18 21:04:00,
2013-08-18 16:09:00,77.8,58.8,30.02,WSW,258,8.0,12.0,52,0.00,,SCT,0.00,645.00,VWS V14.01,2013-08-18 21:09:00,
2013-08-18 16:14:00,77.8,57.7,30.03,WSW,250,13.0,15.0,50,0.00,,SCT,0.00,606.00,VWS V14.01,2013-08-18 21:14:00,
2013-08-18 16:19:00,77.9,57.2,30.03,SW,234,9.0,17.0,49,0.00,,SCT,0.00,629.00,VWS V14.01,2013-08-18 21:19:00,
2013-08-18 16:24:00,78.1,58.5,30.02,SW,228,6.0,14.0,51,0.00,,SCT,0.00,605.00,VWS V14.01,2013-08-18 21:24:00,
2013-08-18 16:29:00,78.3,58.7,30.02,WSW,239,8.0,13.0,51,0.00,,SCT,0.00,550.00,VWS V14.01,2013-08-18 21:29:00,
2013-08-18 16:34:00,78.4,57.7,30.02,WSW,242,8.0,12.0,49,0.00,,SCT,0.00,446.00,VWS V14.01,2013-08-18 21:34:00,
2013-08-18 16:39:00,78.4,58.2,30.01,WSW,245,11.0,14.0,50,0.00,,SCT,0.00,515.00,VWS V14.01,2013-08-18 21:39:00,
2013-08-18 16:44:00,78.3,58.7,30.01,SW,219,11.0,14.0,51,0.00,,SCT,0.00,475.00,VWS V14.01,2013-08-18 21:44:00,
2013-08-18 16:49:00,78.2,59.2,30.01,WSW,242,7.0,14.0,52,0.00,,SCT,0.00,417.00,VWS V14.01,2013-08-18 21:49:00,
2013-08-18 16:54:00,78.3,58.2,30.01,SW,235,6.0,9.0,50,0.00,,SCT,0.00,497.00,VWS V14.01,2013-08-18 21:54:00,
2013-08-18 16:59:00,78.4,59.3,30.01,SW,232,5.0,10.0,52,0.00,,SCT,0.00,427.00,VWS V14.01,2013-08-18 21:59:00,
2013-08-18 17:04:00,78.4,59.3,30.01,SW,235,6.0,11.0,52,0.00,,SCT,0.00,396.00,VWS V14.01,2013-08-18 22:04:00,
2013-08-18 17:09:00,78.3,58.7,30.01,WSW,240,11.0,11.0,51,0.00,,SCT,0.00,367.00,VWS V14.01,2013-08-18 22:09:00,
2013-08-18 17:14:00,78.1,58.0,30.01,SW,235,9.0,15.0,50,0.00,,SCT,0.00,373.00,VWS V14.01,2013-08-18 22:14:00,
2013-08-18 17:19:00,77.9,58.3,30.01,WSW,243,3.0,9.0,51,0.00,,SCT,0.00,369.00,VWS V14.01,2013-08-18 22:19:00,
2013-08-18 17:24:00,77.8,56.6,30.01,WSW,257,7.0,11.0,48,0.00,,SCT,0.00,329.00,VWS V14.01,2013-08-18 22:24:00,
2013-08-18 17:29:00,77.8,57.7,30.01,WSW,247,7.0,14.0,50,0.00,,SCT,0.00,359.00,VWS V14.01,2013-08-18 22:29:00,
2013-08-18 17:34:00,77.8,58.8,30.01,West,271,8.0,16.0,52,0.00,,SCT,0.00,350.00,VWS V14.01,2013-08-18 22:34:00,
2013-08-18 17:39:00,77.7,59.2,30.01,WSW,252,10.0,16.0,53,0.00,,SCT,0.00,367.00,VWS V14.01,2013-08-18 22:39:00,
2013-08-18 17:44:00,77.6,58.1,30.01,WSW,245,4.0,11.0,51,0.00,,SCT,0.00,336.00,VWS V14.01,2013-08-18 22:44:00,
2013-08-18 17:50:00,77.5,59.0,30.01,WSW,240,17.0,17.0,53,0.00,,SCT,0.00,320.00,VWS V14.01,2013-08-18 22:50:00,
2013-08-18 17:55:00,77.3,58.3,30.01,West,279,18.0,18.0,52,0.00,,SCT,0.00,318.00,VWS V14.01,2013-08-18 22:55:00,
2013-08-18 18:00:00,77.1,59.2,30.01,West,263,5.0,12.0,54,0.00,,SCT,0.00,313.00,VWS V14.01,2013-08-18 23:00:00,
2013-08-18 18:05:00,77.1,58.1,30.01,SW,236,10.0,15.0,52,0.00,,SCT,0.00,295.00,VWS V14.01,2013-08-18 23:05:00,
2013-08-18 18:10:00,77.0,58.0,30.01,West,267,8.0,13.0,52,0.00,,SCT,0.00,294.00,VWS V14.01,2013-08-18 23:10:00,
2013-08-18 18:15:00,77.0,59.6,30.00,West,272,7.0,10.0,55,0.00,,SCT,0.00,301.00,VWS V14.01,2013-08-18 23:15:00,
2013-08-18 18:20:00,77.0,59.1,30.00,SW,231,8.0,8.0,54,0.00,,SCT,0.00,279.00,VWS V14.01,2013-08-18 23:20:00,
2013-08-18 18:25:00,77.0,59.1,30.00,West,275,6.0,13.0,54,0.00,,SCT,0.00,279.00,VWS V14.01,2013-08-18 23:25:00,
2013-08-18 18:30:00,77.0,59.1,30.00,SW,233,9.0,12.0,54,0.00,,SCT,0.00,257.00,VWS V14.01,2013-08-18 23:30:00,
2013-08-18 18:35:00,76.9,59.0,29.99,WSW,240,6.0,10.0,54,0.00,,SCT,0.00,237.00,VWS V14.01,2013-08-18 23:35:00,
2013-08-18 18:40:00,76.7,58.8,29.99,WSW,240,8.0,12.0,54,0.00,,SCT,0.00,218.00,VWS V14.01,2013-08-18 23:40:00,
2013-08-18 18:45:00,76.6,58.2,29.99,WSW,242,6.0,13.0,53,0.00,,SCT,0.00,186.00,VWS V14.01,2013-08-18 23:45:00,
2013-08-18 18:50:00,76.6,58.7,29.99,West,262,4.0,8.0,54,0.00,,SCT,0.00,163.00,VWS V14.01,2013-08-18 23:50:00,
2013-08-18 18:55:00,76.5,58.6,29.99,SSW,213,7.0,8.0,54,0.00,,SCT,0.00,146.00,VWS V14.01,2013-08-18 23:55:00,
2013-08-18 19:00:00,76.4,59.6,29.99,WSW,238,4.0,7.0,56,0.00,,SCT,0.00,135.00,VWS V14.01,2013-08-19 00:00:00,
2013-08-18 19:05:00,76.2,58.9,29.99,WSW,239,4.0,9.0,55,0.00,,SCT,0.00,125.00,VWS V14.01,2013-08-19 00:05:00,
2013-08-18 19:10:00,76.0,59.2,29.99,WSW,250,5.0,10.0,56,0.00,,SCT,0.00,111.00,VWS V14.01,2013-08-19 00:10:00,
2013-08-18 19:15:00,75.8,59.0,29.99,WSW,246,4.0,9.0,56,0.00,,SCT,0.00,58.00,VWS V14.01,2013-08-19 00:15:00,
2013-08-18 19:20:00,75.5,58.7,29.99,WSW,255,7.0,7.0,56,0.00,,SCT,0.00,46.00,VWS V14.01,2013-08-19 00:20:00,
2013-08-18 19:25:00,75.2,59.4,29.98,WSW,238,5.0,6.0,58,0.00,,SCT,0.00,39.00,VWS V14.01,2013-08-19 00:25:00,
2013-08-18 19:30:00,74.8,59.0,29.98,SW,232,1.0,5.0,58,0.00,,SCT,0.00,30.00,VWS V14.01,2013-08-19 00:30:00,
2013-08-18 19:35:00,74.5,58.8,29.99,SW,225,3.0,6.0,58,0.00,,SCT,0.00,21.00,VWS V14.01,2013-08-19 00:35:00,
2013-08-18 19:40:00,74.1,58.9,29.99,WSW,242,4.0,7.0,59,0.00,,SCT,0.00,18.00,VWS V14.01,2013-08-19 00:40:00,
2013-08-18 19:45:00,73.8,58.6,29.98,SW,232,5.0,7.0,59,0.00,,SCT,0.00,16.00,VWS V14.01,2013-08-19 00:45:00,
2013-08-18 19:50:00,73.4,58.7,29.98,SW,236,5.0,5.0,60,0.00,,SCT,0.00,12.00,VWS V14.01,2013-08-19 00:50:00,
2013-08-18 19:55:00,73.1,59.3,29.98,SW,232,5.0,5.0,62,0.00,,SCT,0.00,11.00,VWS V14.01,2013-08-19 00:55:00,
2013-08-18 20:00:00,72.8,59.0,29.98,SW,216,5.0,6.0,62,0.00,,SCT,0.00,5.00,VWS V14.01,2013-08-19 01:00:00,
2013-08-18 20:05:00,72.5,58.8,29.98,SW,221,3.0,6.0,62,0.00,,SCT,0.00,0.00,VWS V14.01,2013-08-19 01:05:00,
2013-08-18 20:10:00,72.1,58.4,29.98,WSW,258,3.0,5.0,62,0.00,,SCT,0.00,0.00,VWS V14.01,2013-08-19 01:10:00,
2013-08-18 20:15:00,71.7,58.9,29.98,SW,235,3.0,5.0,64,0.00,,SCT,0.00,0.00,VWS V14.01,2013-08-19 01:15:00,
2013-08-18 20:20:00,71.4,58.6,29.98,SW,224,2.0,5.0,64,0.00,,SCT,0.00,0.00,VWS V14.01,2013-08-19 01:20:00,
2013-08-18 20:25:00,71.1,58.8,29.98,SW,225,3.0,4.0,65,0.00,,SCT,0.00,0.00,VWS V14.01,2013-08-19 01:25:00,
2013-08-18 20:30:00,70.8,58.0,29.98,SW,227,2.0,5.0,64,0.00,,SCT,0.00,0.00,VWS V14.01,2013-08-19 01:30:00,
2013-08-18 20:35:00,70.5,58.2,29.98,SW,227,5.0,7.0,65,0.00,,SCT,0.00,0.00,VWS V14.01,2013-08-19 01:35:00,
2013-08-18 20:40:00,70.2,58.3,29.98,SW,227,4.0,7.0,66,0.00,,SCT,0.00,0.00,VWS V14.01,2013-08-19 01:40:00,
2013-08-18 20:45:00,70.0,58.1,29.98,SW,229,4.0,7.0,66,0.00,,SCT,0.00,0.00,VWS V14.01,2013-08-19 01:45:00,
2013-08-18 20:50:00,69.8,57.5,29.98,WSW,248,3.0,6.0,65,0.00,,SCT,0.00,0.00,VWS V14.01,2013-08-19 01:50:00,
2013-08-18 20:55:00,69.6,57.3,29.98,SW,236,0.0,5.0,65,0.00,,SCT,0.00,0.00,VWS V14.01,2013-08-19 01:55:00,
2013-08-18 21:00:00,69.4,58.0,29.99,WSW,242,4.0,5.0,67,0.00,,SCT,0.00,0.00,VWS V14.01,2013-08-19 02:00:00,
2013-08-18 21:05:00,69.3,57.5,29.98,SW,229,3.0,5.0,66,0.00,,SCT,0.00,0.00,VWS V14.01,2013-08-19 02:05:00,
2013-08-18 21:10:00,69.2,57.8,29.98,SW,217,3.0,7.0,67,0.00,,SCT,0.00,0.00,VWS V14.01,2013-08-19 02:10:00,
2013-08-18 21:15:00,69.0,57.6,29.98,SW,220,7.0,7.0,67,0.00,,SCT,0.00,0.00,VWS V14.01,2013-08-19 02:15:00,
2013-08-18 21:20:00,69.0,57.6,29.98,WSW,244,4.0,8.0,67,0.00,,SCT,0.00,0.00,VWS V14.01,2013-08-19 02:20:00,
2013-08-18 21:25:00,68.9,57.5,29.98,WSW,243,2.0,5.0,67,0.00,,SCT,0.00,0.00,VWS V14.01,2013-08-19 02:25:00,
2013-08-18 21:30:00,68.8,57.8,29.98,WSW,242,5.0,6.0,68,0.00,,SCT,0.00,0.00,VWS V14.01,2013-08-19 02:30:00,
2013-08-18 21:35:00,68.8,57.4,29.99,SW,234,3.0,6.0,67,0.00,,SCT,0.00,0.00,VWS V14.01,2013-08-19 02:35:00,
2013-08-18 21:40:00,68.7,57.7,29.98,WSW,239,2.0,5.0,68,0.00,,SCT,0.00,0.00,VWS V14.01,2013-08-19 02:40:00,
2013-08-18 21:45:00,68.6,57.6,29.98,SW,236,2.0,6.0,68,0.00,,SCT,0.00,0.00,VWS V14.01,2013-08-19 02:45:00,
2013-08-18 21:51:00,68.4,57.8,29.99,SW,232,3.0,4.0,69,0.00,,SCT,0.00,0.00,VWS V14.01,2013-08-19 02:51:00,
2013-08-18 21:56:00,68.3,56.9,29.99,SW,216,3.0,5.0,67,0.00,,SCT,0.00,0.00,VWS V14.01,2013-08-19 02:56:00,
2013-08-18 22:01:00,68.2,57.2,29.99,SW,224,2.0,5.0,68,0.00,,SCT,0.00,0.00,VWS V14.01,2013-08-19 03:01:00,
2013-08-18 22:06:00,68.0,57.1,29.99,SSW,207,3.0,6.0,68,0.00,,SCT,0.00,0.00,VWS V14.01,2013-08-19 03:06:00,
2013-08-18 22:11:00,67.8,56.9,29.99,SW,219,0.0,4.0,68,0.00,,SCT,0.00,0.00,VWS V14.01,2013-08-19 03:11:00,
2013-08-18 22:16:00,67.6,57.1,29.99,SW,221,2.0,5.0,69,0.00,,SCT,0.00,0.00,VWS V14.01,2013-08-19 03:16:00,
2013-08-18 22:21:00,67.3,56.8,29.99,SW,229,4.0,4.0,69,0.00,,SCT,0.00,0.00,VWS V14.01,2013-08-19 03:21:00,
2013-08-18 22:26:00,67.1,56.6,29.99,SW,217,3.0,3.0,69,0.00,,SCT,0.00,0.00,VWS V14.01,2013-08-19 03:26:00,
2013-08-18 22:31:00,66.9,56.8,29.99,SSW,208,3.0,4.0,70,0.00,,SCT,0.00,0.00,VWS V14.01,2013-08-19 03:31:00,
2013-08-18 22:36:00,66.7,56.6,29.99,SW,219,2.0,4.0,70,0.00,,SCT,0.00,0.00,VWS V14.01,2013-08-19 03:36:00,
2013-08-18 22:41:00,66.5,56.4,29.99,SW,219,0.0,4.0,70,0.00,,SCT,0.00,0.00,VWS V14.01,2013-08-19 03:41:00,
2013-08-18 22:46:00,66.2,56.5,29.98,SSW,200,2.0,5.0,71,0.00,,SCT,0.00,0.00,VWS V14.01,2013-08-19 03:46:00,
2013-08-18 22:51:00,65.9,56.6,29.98,SW,229,3.0,5.0,72,0.00,,SCT,0.00,0.00,VWS V14.01,2013-08-19 03:51:00,
2013-08-18 22:56:00,65.7,56.4,29.99,SW,217,0.0,4.0,72,0.00,,SCT,0.00,0.00,VWS V14.01,2013-08-19 03:56:00,
2013-08-18 23:01:00,65.5,56.6,29.99,SW,217,1.0,3.0,73,0.00,,SCT,0.00,0.00,VWS V14.01,2013-08-19 04:01:00,
2013-08-18 23:03:00,65.4,56.5,29.99,SSW,208,0.0,4.0,73,0.00,,SCT,0.00,0.00,VWS V14.01,2013-08-19 04:03:00,
2013-08-18 23:06:00,65.3,56.4,29.99,SW,217,2.0,4.0,73,0.00,,SCT,0.00,0.00,VWS V14.01,2013-08-19 04:06:00,
2013-08-18 23:11:00,65.0,56.2,29.99,SW,217,4.0,4.0,73,0.00,,SCT,0.00,0.00,VWS V14.01,2013-08-19 04:11:00,
2013-08-18 23:16:00,64.9,56.4,29.99,SW,223,3.0,4.0,74,0.00,,SCT,0.00,0.00,VWS V14.01,2013-08-19 04:16:00,
2013-08-18 23:21:00,64.6,56.5,29.99,SW,225,4.0,4.0,75,0.00,,SCT,0.00,0.00,VWS V14.01,2013-08-19 04:21:00,
2013-08-18 23:26:00,64.4,56.3,29.99,SW,221,3.0,4.0,75,0.00,,SCT,0.00,0.00,VWS V14.01,2013-08-19 04:26:00,
2013-08-18 23:31:00,64.3,56.2,29.99,SW,216,4.0,5.0,75,0.00,,SCT,0.00,0.00,VWS V14.01,2013-08-19 04:31:00,
2013-08-18 23:36:00,64.2,56.5,29.98,SW,216,1.0,5.0,76,0.00,,SCT,0.00,0.00,VWS V14.01,2013-08-19 04:36:00,
2013-08-18 23:41:00,64.0,56.7,29.98,SW,215,2.0,6.0,77,0.00,,SCT,0.00,0.00,VWS V14.01,2013-08-19 04:41:00,
2013-08-18 23:46:00,63.9,56.6,29.98,SW,215,2.0,6.0,77,0.00,,SCT,0.00,0.00,VWS V14.01,2013-08-19 04:46:00,
2013-08-18 23:51:00,63.8,56.8,29.98,WSW,244,3.0,6.0,78,0.00,,SCT,0.00,0.00,VWS V14.01,2013-08-19 04:51:00,
2013-08-18 23:56:00,63.8,56.8,29.98,SW,219,0.0,5.0,78,0.00,,SCT,0.00,0.00,VWS V14.01,2013-08-19 04:56:00,